Great BritainFixed distance
Serpent Trail Race 50km
2 Jul2022
Distance
50km
Finishers
459293 men166 women
Winning time
3:13:27h
Median pace
8.02km/h
Pace distribution
459 finishers · 3.93–15.51 km/h · mean 8.10
Every finisher ran the same 50 km course, so these paces are directly comparable.
Histogram of finisher pace. 459 finishers ranged from 3.93 to 15.51 kilometres per hour, with a mean of 8.10 and a median of 8.02. The busiest band is 8.0 to 8.5 kilometres per hour, with 65 finishers.
Results
Ranks 101–150 of 459
| Rank | Runner | Time | Pace | Cat. | Placing |
|---|---|---|---|---|---|
| 101 | 5:27:46h | 9.15 | M35 | 78th M · 15th M35 | |
| 102 | 5:28:00h | 9.15 | M45 | 79th M · 13th M45 | |
| 103 | Kinetic Sports | 5:28:27h | 9.13 | M23 | 80th M · 25th M23 |
| 104 | 5:28:36h | 9.13 | W23 | 24th F · 6th W23 | |
| 105 | 5:28:55h | 9.12 | M45 | 81st M · 14th M45 | |
| 106 | 5:30:25h | 9.08 | MU23 | 82nd M · 1st MU23 | |
| 107 | Keswick AC | 5:30:53h | 9.07 | M40 | 83rd M · 21st M40 |
| 108 | Hayle Runners | 5:31:31h | 9.05 | M55 | 84th M · 2nd M55 |
| 109 | 5:31:32h | 9.05 | M40 | 85th M · 22nd M40 | |
| 110 | Beckenham Running Club | 5:31:38h | 9.05 | M23 | 86th M · 26th M23 |
| 111 | Horsham Joggers | 5:31:48h | 9.04 | M50 | 87th M · 6th M50 |
| 112 | 5:33:33h | 8.99 | M40 | 88th M · 23rd M40 | |
| 113 | Blended Trails | 5:34:06h | 8.98 | M50 | 89th M · 7th M50 |
| 114 | Alton Runners | 5:35:03h | 8.95 | M50 | 90th M · 8th M50 |
| 115 | 5:35:03h | 8.95 | M45 | 90th M · 15th M45 | |
| 116 | 5:35:23h | 8.95 | M50 | 92nd M · 9th M50 | |
| 117 | 5:35:41h | 8.94 | M60 | 93rd M · 2nd M60 | |
| 118 | 5:35:44h | 8.94 | M45 | 94th M · 16th M45 | |
| 119 | 5:35:46h | 8.94 | M23 | 95th M · 27th M23 | |
| 120 | Cornwall AC | 5:35:58h | 8.93 | W23 | 25th F · 7th W23 |
| 121 | 5:36:29h | 8.92 | M55 | 96th M · 3rd M55 | |
| 122 | 5:36:38h | 8.91 | W45 | 26th F · 7th W45 | |
| 123 | 5:37:16h | 8.89 | M40 | 97th M · 24th M40 | |
| 124 | 5:37:19h | 8.89 | M45 | 98th M · 17th M45 | |
| 125 | Zoom Tri Club Bournemouth | 5:38:06h | 8.87 | M55 | 99th M · 4th M55 |
| 126 | 5:38:07h | 8.87 | MU23 | 100th M · 2nd MU23 | |
| 127 | 5:38:49h | 8.85 | M50 | 101st M · 10th M50 | |
| 128 | Alton Runners | 5:38:52h | 8.85 | M45 | 102nd M · 18th M45 |
| 129 | 5:39:11h | 8.85 | W35 | 27th F · 4th W35 | |
| 130 | 5:39:29h | 8.84 | M23 | 103rd M · 28th M23 | |
| 131 | Medway and Maidstone AC | 5:40:37h | 8.81 | M65 | 104th M · 1st M65 |
| 132 | Liss Runners | 5:41:02h | 8.80 | W35 | 28th F · 5th W35 |
| 133 | Falmouth Road Runners | 5:41:10h | 8.79 | W35 | 29th F · 6th W35 |
| 134 | 5:41:57h | 8.77 | M50 | 105th M · 11th M50 | |
| 135 | 5:42:42h | 8.75 | M35 | 106th M · 16th M35 | |
| 136 | Mel’s Milers | 5:43:04h | 8.74 | W23 | 30th F · 8th W23 |
| 137 | Henfield Joggers | 5:43:18h | 8.74 | M40 | 107th M · 25th M40 |
| 138 | 5:43:20h | 8.74 | M23 | 108th M · 29th M23 | |
| 139 | 5:43:25h | 8.74 | M40 | 109th M · 26th M40 | |
| 140 | 5:43:34h | 8.73 | M23 | 110th M · 30th M23 | |
| 141 | 5:43:35h | 8.73 | M23 | 111th M · 31st M23 | |
| 142 | 5:43:49h | 8.73 | W40 | 31st F · 8th W40 | |
| 143 | 5:44:25h | 8.71 | M23 | 112th M · 32nd M23 | |
| 144 | 5:44:29h | 8.71 | W23 | 32nd F · 9th W23 | |
| 145 | Liss Runners | 5:44:31h | 8.71 | W50 | 33rd F · 2nd W50 |
| 146 | Lingfield RC | 5:45:10h | 8.69 | W55 | 34th F · 1st W55 |
| 147 | 5:45:26h | 8.69 | M40 | 113th M · 27th M40 | |
| 148 | Midhurst Milers | 5:45:28h | 8.68 | W50 | 35th F · 3rd W50 |
| 149 | 5:45:46h | 8.68 | M45 | 114th M · 19th M45 | |
| 150 | 5:45:57h | 8.67 | M35 | 115th M · 17th M35 |
- 10178th M · 15th M35Time5:27:46hPace9.15Cat.M35
- 10279th M · 13th M45Time5:28:00hPace9.15Cat.M45
- 103Kinetic Sports80th M · 25th M23Time5:28:27hPace9.13Cat.M23
- 10424th F · 6th W23Time5:28:36hPace9.13Cat.W23
- 10581st M · 14th M45Time5:28:55hPace9.12Cat.M45
- 10682nd M · 1st MU23Time5:30:25hPace9.08Cat.MU23
- 107Keswick AC83rd M · 21st M40Time5:30:53hPace9.07Cat.M40
- 108Hayle Runners84th M · 2nd M55Time5:31:31hPace9.05Cat.M55
- 10985th M · 22nd M40Time5:31:32hPace9.05Cat.M40
- 110Beckenham Running Club86th M · 26th M23Time5:31:38hPace9.05Cat.M23
- 111Horsham Joggers87th M · 6th M50Time5:31:48hPace9.04Cat.M50
- 11288th M · 23rd M40Time5:33:33hPace8.99Cat.M40
- 113Blended Trails89th M · 7th M50Time5:34:06hPace8.98Cat.M50
- 114Alton Runners90th M · 8th M50Time5:35:03hPace8.95Cat.M50
- 11590th M · 15th M45Time5:35:03hPace8.95Cat.M45
- 11692nd M · 9th M50Time5:35:23hPace8.95Cat.M50
- 11793rd M · 2nd M60Time5:35:41hPace8.94Cat.M60
- 11894th M · 16th M45Time5:35:44hPace8.94Cat.M45
- 11995th M · 27th M23Time5:35:46hPace8.94Cat.M23
- 120Cornwall AC25th F · 7th W23Time5:35:58hPace8.93Cat.W23
- 12196th M · 3rd M55Time5:36:29hPace8.92Cat.M55
- 12226th F · 7th W45Time5:36:38hPace8.91Cat.W45
- 12397th M · 24th M40Time5:37:16hPace8.89Cat.M40
- 12498th M · 17th M45Time5:37:19hPace8.89Cat.M45
- 125Zoom Tri Club Bournemouth99th M · 4th M55Time5:38:06hPace8.87Cat.M55
- 126100th M · 2nd MU23Time5:38:07hPace8.87Cat.MU23
- 127101st M · 10th M50Time5:38:49hPace8.85Cat.M50
- 128Alton Runners102nd M · 18th M45Time5:38:52hPace8.85Cat.M45
- 12927th F · 4th W35Time5:39:11hPace8.85Cat.W35
- 130103rd M · 28th M23Time5:39:29hPace8.84Cat.M23
- 131Medway and Maidstone AC104th M · 1st M65Time5:40:37hPace8.81Cat.M65
- 132Liss Runners28th F · 5th W35Time5:41:02hPace8.80Cat.W35
- 133Falmouth Road Runners29th F · 6th W35Time5:41:10hPace8.79Cat.W35
- 134105th M · 11th M50Time5:41:57hPace8.77Cat.M50
- 135106th M · 16th M35Time5:42:42hPace8.75Cat.M35
- 136Mel’s Milers30th F · 8th W23Time5:43:04hPace8.74Cat.W23
- 137Henfield Joggers107th M · 25th M40Time5:43:18hPace8.74Cat.M40
- 138108th M · 29th M23Time5:43:20hPace8.74Cat.M23
- 139109th M · 26th M40Time5:43:25hPace8.74Cat.M40
- 140110th M · 30th M23Time5:43:34hPace8.73Cat.M23
- 141111th M · 31st M23Time5:43:35hPace8.73Cat.M23
- 14231st F · 8th W40Time5:43:49hPace8.73Cat.W40
- 143112th M · 32nd M23Time5:44:25hPace8.71Cat.M23
- 14432nd F · 9th W23Time5:44:29hPace8.71Cat.W23
- 145Liss Runners33rd F · 2nd W50Time5:44:31hPace8.71Cat.W50
- 146Lingfield RC34th F · 1st W55Time5:45:10hPace8.69Cat.W55
- 147113th M · 27th M40Time5:45:26hPace8.69Cat.M40
- 148Midhurst Milers35th F · 3rd W50Time5:45:28hPace8.68Cat.W50
- 149114th M · 19th M45Time5:45:46hPace8.68Cat.M45
- 150115th M · 17th M35Time5:45:57hPace8.67Cat.M35
Showing ranks 101–150 of 459